Time;durP1;ratioP1;P1;durP2;ratioP2;P2;SDS_P1;SDS_P2;PMS_P1;PMS_P2;Temp;Humidity;BMP_temperature;BMP_pressure;BME280_temperature;BME280_humidity;BME280_pressure;Samples;Min_cycle;Max_cycle;Signal;HPM_P1;HPM_P2
2024/01/07 00:00:03;;;;;;;7.72;3.85;;;0.50;99.90;;;;;;5019045;28;20038;-78
2024/01/07 00:02:30;;;;;;;11.35;3.88;;;0.50;99.90;;;;;;5009436;28;20053;-78
2024/01/07 00:04:56;;;;;;;11.55;5.13;;;0.50;99.90;;;;;;4992342;28;20101;-78
2024/01/07 00:07:22;;;;;;;5.82;3.30;;;0.50;99.90;;;;;;5009460;28;20077;-78
2024/01/07 00:09:47;;;;;;;4.72;4.10;;;0.50;99.90;;;;;;5010354;28;20077;-78
2024/01/07 00:12:13;;;;;;;10.85;5.15;;;0.50;99.90;;;;;;4993477;28;20052;-78
2024/01/07 00:14:39;;;;;;;7.63;3.60;;;0.50;99.90;;;;;;5009462;28;20109;-77
2024/01/07 00:17:05;;;;;;;9.52;5.10;;;0.50;99.90;;;;;;4998909;28;20042;-77
2024/01/07 00:19:35;;;;;;;6.70;3.55;;;0.40;99.90;;;;;;5014147;28;20088;-77
2024/01/07 00:22:01;;;;;;;12.18;5.03;;;0.40;99.90;;;;;;5000748;28;20147;-77
2024/01/07 00:24:28;;;;;;;7.75;4.32;;;0.50;99.90;;;;;;5000582;28;20133;-77
2024/01/07 00:26:55;;;;;;;6.90;3.72;;;0.40;99.90;;;;;;5015865;28;20042;-77
2024/01/07 00:29:21;;;;;;;9.68;5.32;;;0.50;99.90;;;;;;5009311;28;20042;-77
2024/01/07 00:31:46;;;;;;;11.35;4.50;;;0.40;99.90;;;;;;5007533;28;20131;-77
2024/01/07 00:34:12;;;;;;;5.68;3.53;;;0.50;99.90;;;;;;5008867;28;20042;-77
2024/01/07 00:36:38;;;;;;;8.60;4.88;;;0.40;99.90;;;;;;5009002;28;20107;-77
2024/01/07 00:39:03;;;;;;;7.18;4.18;;;0.50;99.90;;;;;;4997630;28;20413;-77
2024/01/07 00:41:30;;;;;;;8.82;4.32;;;0.40;99.90;;;;;;5016116;28;20041;-77
2024/01/07 00:43:56;;;;;;;10.93;5.35;;;0.50;99.90;;;;;;5016703;28;20080;-77
2024/01/07 00:46:22;;;;;;;9.48;5.22;;;0.50;99.90;;;;;;5038740;28;20030;-77
2024/01/07 00:48:48;;;;;;;8.68;4.28;;;0.50;99.90;;;;;;5015570;28;20119;-76
2024/01/07 00:51:13;;;;;;;8.20;3.90;;;0.40;99.90;;;;;;5014495;28;20041;-77
2024/01/07 00:53:39;;;;;;;10.27;5.22;;;0.40;99.90;;;;;;4998039;28;20132;-77
2024/01/07 00:56:05;;;;;;;5.95;3.58;;;0.50;99.90;;;;;;5015592;28;20045;-77
2024/01/07 00:58:31;;;;;;;5.80;3.13;;;0.50;99.90;;;;;;5013958;28;20038;-77
2024/01/07 01:00:57;;;;;;;10.15;4.10;;;0.40;99.90;;;;;;5032313;28;20076;-77
2024/01/07 01:03:23;;;;;;;9.73;4.18;;;0.50;99.90;;;;;;4998707;28;20045;-77
2024/01/07 01:05:49;;;;;;;11.13;4.05;;;0.40;99.90;;;;;;4999016;28;20411;-77
2024/01/07 01:08:14;;;;;;;11.48;3.88;;;0.40;99.90;;;;;;5031725;28;20036;-77
2024/01/07 01:10:40;;;;;;;7.68;5.18;;;0.40;99.90;;;;;;5011752;28;20038;-77
2024/01/07 01:13:06;;;;;;;9.63;4.57;;;0.40;99.90;;;;;;5005900;28;20046;-77
2024/01/07 01:15:31;;;;;;;6.35;3.70;;;0.40;99.90;;;;;;5008348;28;20049;-77
2024/01/07 01:17:58;;;;;;;8.68;4.15;;;0.40;99.90;;;;;;4992569;28;20475;-77
2024/01/07 01:20:23;;;;;;;7.53;3.70;;;0.40;99.90;;;;;;5009229;28;20351;-77
2024/01/07 01:22:49;;;;;;;8.48;3.15;;;0.40;99.90;;;;;;4992554;28;20098;-77
2024/01/07 01:25:14;;;;;;;4.40;2.70;;;0.40;99.90;;;;;;5008592;28;20058;-77
2024/01/07 01:27:40;;;;;;;5.88;3.13;;;0.40;99.90;;;;;;5011660;28;20057;-77
2024/01/07 01:30:07;;;;;;;7.35;3.88;;;0.40;99.90;;;;;;4992720;28;20046;-77
2024/01/07 01:32:33;;;;;;;10.23;5.30;;;0.40;99.90;;;;;;5007689;28;20058;-77
2024/01/07 01:34:58;;;;;;;7.65;3.45;;;0.40;99.90;;;;;;5007608;28;20519;-77
2024/01/07 01:37:24;;;;;;;4.22;3.30;;;0.40;99.90;;;;;;5007472;28;20082;-77
2024/01/07 01:39:49;;;;;;;3.92;3.05;;;0.40;99.90;;;;;;5008610;28;20426;-77
2024/01/07 01:42:15;;;;;;;6.53;3.25;;;0.50;99.90;;;;;;5006483;28;20074;-77
2024/01/07 01:44:41;;;;;;;6.90;4.45;;;0.40;99.90;;;;;;4993417;28;20079;-77
2024/01/07 01:47:08;;;;;;;7.78;4.55;;;0.40;99.90;;;;;;4990827;28;20064;-77
2024/01/07 01:49:36;;;;;;;9.10;4.15;;;0.40;99.90;;;;;;5010226;28;20074;-77
2024/01/07 01:52:02;;;;;;;4.30;2.42;;;0.40;99.90;;;;;;5022106;28;20067;-77
2024/01/07 01:54:28;;;;;;;5.55;3.72;;;0.50;99.90;;;;;;5017422;28;20060;-77
2024/01/07 01:56:55;;;;;;;7.32;3.33;;;0.50;99.90;;;;;;5014839;28;20046;-77
2024/01/07 01:59:21;;;;;;;7.13;2.78;;;0.50;99.90;;;;;;5014151;28;20057;-77
2024/01/07 02:01:47;;;;;;;8.48;4.32;;;0.50;99.90;;;;;;5014616;28;20119;-77
2024/01/07 02:04:15;;;;;;;10.65;4.75;;;0.50;99.90;;;;;;5014006;28;20113;-77
2024/01/07 02:06:40;;;;;;;7.78;3.90;;;0.60;99.90;;;;;;5016455;28;20081;-77
2024/01/07 02:09:06;;;;;;;4.85;3.45;;;0.50;99.90;;;;;;5017571;28;20053;-77
2024/01/07 02:11:32;;;;;;;6.97;3.17;;;0.50;99.90;;;;;;5000839;28;20044;-77
2024/01/07 02:13:57;;;;;;;4.90;3.40;;;0.60;99.90;;;;;;4986866;28;20077;-77
2024/01/07 02:16:23;;;;;;;10.02;4.38;;;0.50;99.90;;;;;;5035759;28;20099;-77
2024/01/07 02:18:50;;;;;;;9.27;4.40;;;0.50;99.90;;;;;;5014307;28;20046;-77
2024/01/07 02:21:15;;;;;;;14.80;3.72;;;0.50;99.90;;;;;;4996298;28;20037;-77
2024/01/07 02:23:41;;;;;;;7.97;4.05;;;0.50;99.90;;;;;;5011035;28;20046;-77
2024/01/07 02:26:07;;;;;;;14.77;5.20;;;0.50;99.90;;;;;;5012674;28;20037;-77
2024/01/07 02:28:33;;;;;;;4.57;3.78;;;0.60;99.90;;;;;;5011070;28;20074;-77
2024/01/07 02:30:59;;;;;;;7.50;3.22;;;0.50;99.90;;;;;;5012000;28;20045;-77
2024/01/07 02:33:25;;;;;;;8.10;4.97;;;0.40;99.90;;;;;;5017075;28;20050;-76
2024/01/07 02:35:50;;;;;;;7.10;3.42;;;0.50;99.90;;;;;;5013887;28;20132;-77
2024/01/07 02:38:16;;;;;;;7.53;3.60;;;0.40;99.90;;;;;;5017292;28;20038;-77
2024/01/07 02:40:42;;;;;;;6.05;3.20;;;0.50;99.90;;;;;;4999605;28;20038;-77
2024/01/07 02:43:08;;;;;;;4.35;3.55;;;0.50;99.90;;;;;;5001804;28;20073;-77
2024/01/07 02:45:34;;;;;;;6.53;3.65;;;0.50;99.90;;;;;;5014832;28;20439;-76
2024/01/07 02:48:00;;;;;;;9.48;4.50;;;0.40;99.90;;;;;;5010183;28;20030;-77
2024/01/07 02:50:25;;;;;;;5.18;3.03;;;0.40;99.90;;;;;;5028850;28;20093;-77
2024/01/07 02:52:51;;;;;;;7.63;3.88;;;0.50;99.90;;;;;;5049444;28;20054;-77
2024/01/07 02:55:17;;;;;;;5.15;2.97;;;0.40;99.90;;;;;;4999420;28;20042;-77
2024/01/07 02:57:43;;;;;;;6.20;3.38;;;0.40;99.90;;;;;;5033299;28;20046;-77
2024/01/07 03:00:08;;;;;;;6.43;4.15;;;0.40;99.90;;;;;;5034785;28;20112;-76
2024/01/07 03:02:34;;;;;;;6.32;4.30;;;0.40;99.90;;;;;;5013813;28;20159;-77
2024/01/07 03:05:00;;;;;;;4.60;2.78;;;0.40;99.90;;;;;;5017164;28;20045;-77
2024/01/07 03:07:25;;;;;;;5.85;3.20;;;0.40;99.90;;;;;;5011355;28;20048;-76
2024/01/07 03:09:51;;;;;;;4.88;3.00;;;0.40;99.90;;;;;;5017128;28;20072;-76
2024/01/07 03:12:17;;;;;;;8.90;3.95;;;0.40;99.90;;;;;;5016571;28;20038;-76
2024/01/07 03:14:43;;;;;;;5.57;3.17;;;0.40;99.90;;;;;;4983118;28;20077;-76
2024/01/07 03:17:10;;;;;;;3.60;2.20;;;0.40;99.90;;;;;;5016322;28;20038;-76
2024/01/07 03:19:37;;;;;;;5.30;3.55;;;0.40;99.90;;;;;;5015953;28;20070;-77
2024/01/07 03:22:03;;;;;;;5.40;2.75;;;0.40;99.90;;;;;;5008752;28;20034;-76
2024/01/07 03:24:29;;;;;;;7.72;3.63;;;0.40;99.90;;;;;;5016380;28;20109;-77
2024/01/07 03:26:54;;;;;;;4.88;2.40;;;0.40;99.90;;;;;;5059477;28;20508;-77
2024/01/07 03:29:20;;;;;;;9.00;4.03;;;0.30;99.90;;;;;;5011442;28;20034;-76
2024/01/07 03:31:46;;;;;;;7.32;2.58;;;0.30;99.90;;;;;;5010287;28;20066;-77
2024/01/07 03:34:11;;;;;;;4.55;2.65;;;0.30;99.90;;;;;;5008558;28;20053;-77
2024/01/07 03:36:37;;;;;;;8.75;3.63;;;0.30;99.90;;;;;;4993376;28;20088;-77
2024/01/07 03:39:03;;;;;;;6.28;3.45;;;0.30;99.90;;;;;;4995938;28;20065;-76
2024/01/07 03:41:28;;;;;;;5.38;3.22;;;0.30;99.90;;;;;;5010304;28;20057;-77
2024/01/07 03:43:54;;;;;;;3.42;3.13;;;0.30;99.90;;;;;;5010029;28;20056;-77
2024/01/07 03:46:20;;;;;;;6.80;2.25;;;0.30;99.90;;;;;;5009702;28;20054;-76
2024/01/07 03:48:46;;;;;;;4.93;2.67;;;0.20;99.90;;;;;;4992746;28;20044;-76
2024/01/07 03:51:12;;;;;;;7.53;4.18;;;0.30;99.90;;;;;;5006490;28;20045;-76
2024/01/07 03:53:37;;;;;;;3.30;2.40;;;0.20;99.90;;;;;;5007183;28;20049;-76
2024/01/07 03:56:03;;;;;;;5.78;3.10;;;0.20;99.90;;;;;;5010130;28;20068;-76
2024/01/07 03:58:29;;;;;;;4.25;3.08;;;0.20;99.90;;;;;;5011529;28;20119;-76
2024/01/07 04:00:55;;;;;;;12.48;4.20;;;0.20;99.90;;;;;;5008408;28;20662;-77
2024/01/07 04:03:20;;;;;;;16.13;3.30;;;0.20;99.90;;;;;;5008237;28;20703;-76
2024/01/07 04:05:46;;;;;;;5.40;2.95;;;0.20;99.90;;;;;;4993390;28;20495;-77
2024/01/07 04:08:12;;;;;;;3.65;2.50;;;0.20;99.90;;;;;;4993621;28;20128;-76
2024/01/07 04:10:38;;;;;;;8.27;3.78;;;0.20;99.90;;;;;;5013698;28;20053;-77
2024/01/07 04:13:04;;;;;;;5.68;3.83;;;0.20;99.90;;;;;;5015900;28;20050;-76
2024/01/07 04:15:30;;;;;;;5.47;3.70;;;0.20;99.90;;;;;;5005873;28;20038;-77
2024/01/07 04:17:56;;;;;;;7.32;3.70;;;0.20;99.90;;;;;;5007312;28;20421;-76
2024/01/07 04:20:22;;;;;;;6.82;2.88;;;0.20;99.90;;;;;;5007795;28;20057;-77
2024/01/07 04:22:47;;;;;;;4.22;2.60;;;0.20;99.90;;;;;;5009285;28;20528;-77
2024/01/07 04:25:13;;;;;;;8.55;3.92;;;0.20;99.90;;;;;;5006151;28;20046;-76
2024/01/07 04:27:39;;;;;;;6.13;3.03;;;0.20;99.90;;;;;;5008869;28;20047;-76
2024/01/07 04:30:05;;;;;;;2.72;2.40;;;0.20;99.90;;;;;;5009323;28;20037;-77
2024/01/07 04:32:31;;;;;;;4.75;1.60;;;0.20;99.90;;;;;;5007244;28;20053;-77
2024/01/07 04:34:57;;;;;;;8.48;3.75;;;0.20;99.90;;;;;;5008642;28;20118;-77
2024/01/07 04:37:26;;;;;;;8.80;3.25;;;0.20;99.90;;;;;;5010842;28;20066;-77
2024/01/07 04:39:52;;;;;;;5.65;3.53;;;0.20;99.90;;;;;;5015642;28;20042;-77
2024/01/07 04:42:18;;;;;;;2.45;1.55;;;0.20;99.90;;;;;;5000262;28;20044;-77
2024/01/07 04:44:44;;;;;;;5.75;3.22;;;0.20;99.90;;;;;;4999434;28;20069;-77
2024/01/07 04:47:29;;;;;;;3.72;1.77;;;0.10;99.90;;;;;;5051073;28;20053;-77
2024/01/07 04:49:55;;;;;;;10.95;3.47;;;0.20;99.90;;;;;;5014435;28;20054;-76
2024/01/07 04:52:25;;;;;;;5.30;2.17;;;0.10;99.90;;;;;;5001105;28;20444;-76
2024/01/07 04:54:52;;;;;;;4.47;2.58;;;0.10;99.90;;;;;;5013426;28;20057;-76
2024/01/07 04:57:18;;;;;;;3.92;2.70;;;0.10;99.90;;;;;;4991250;28;20041;-77
2024/01/07 04:59:44;;;;;;;5.00;2.85;;;0.10;99.90;;;;;;4994781;28;20067;-77
2024/01/07 05:02:10;;;;;;;7.15;2.88;;;0.00;99.90;;;;;;5009074;28;20053;-77
2024/01/07 05:04:36;;;;;;;5.35;3.05;;;0.00;99.90;;;;;;5009789;28;20126;-76
2024/01/07 05:07:02;;;;;;;6.32;3.60;;;0.00;99.90;;;;;;4991201;28;20053;-76
2024/01/07 05:09:28;;;;;;;5.25;2.97;;;0.00;99.90;;;;;;5008506;28;20533;-76
2024/01/07 05:11:54;;;;;;;5.53;2.90;;;0.00;99.90;;;;;;5007423;28;20128;-77
2024/01/07 05:14:19;;;;;;;4.35;2.83;;;0.00;99.90;;;;;;5014649;28;20103;-76
2024/01/07 05:16:45;;;;;;;3.15;2.50;;;0.00;99.90;;;;;;4990972;28;20042;-76
2024/01/07 05:19:11;;;;;;;3.60;2.03;;;0.00;99.90;;;;;;5007684;28;20099;-77
2024/01/07 05:21:36;;;;;;;4.00;2.47;;;0.00;99.90;;;;;;5008298;28;20057;-77
2024/01/07 05:24:02;;;;;;;2.45;1.70;;;0.00;99.90;;;;;;5008585;28;20382;-77
2024/01/07 05:26:28;;;;;;;3.28;1.60;;;-0.10;99.90;;;;;;4993968;28;20086;-77
2024/01/07 05:28:54;;;;;;;2.88;2.03;;;-0.10;99.90;;;;;;5007315;28;20053;-77
2024/01/07 05:31:19;;;;;;;3.20;1.92;;;0.00;99.90;;;;;;5009265;28;20042;-77
2024/01/07 05:33:45;;;;;;;4.07;2.20;;;-0.10;99.90;;;;;;5007120;28;20050;-77
2024/01/07 05:36:15;;;;;;;5.15;2.78;;;-0.10;99.90;;;;;;5007862;28;20049;-77
2024/01/07 05:38:43;;;;;;;3.05;1.98;;;-0.10;99.90;;;;;;5007284;28;20081;-77
2024/01/07 05:41:09;;;;;;;2.75;2.05;;;-0.10;99.90;;;;;;5010638;28;20049;-77
2024/01/07 05:43:36;;;;;;;3.20;2.03;;;-0.10;99.90;;;;;;5012991;28;20046;-77
2024/01/07 05:46:03;;;;;;;5.05;2.22;;;-0.10;99.90;;;;;;4994962;28;20038;-77
2024/01/07 05:48:29;;;;;;;2.35;1.77;;;-0.10;99.90;;;;;;5012472;28;20080;-77
2024/01/07 05:50:54;;;;;;;5.63;2.67;;;-0.10;99.90;;;;;;4999330;28;20066;-76
2024/01/07 05:53:20;;;;;;;4.13;2.50;;;-0.10;99.90;;;;;;5010646;28;20046;-77
2024/01/07 05:55:46;;;;;;;4.25;1.92;;;-0.10;99.90;;;;;;4995961;28;20283;-77
2024/01/07 05:58:11;;;;;;;3.08;2.05;;;-0.10;99.90;;;;;;5009518;28;20069;-77
2024/01/07 06:00:38;;;;;;;1.80;1.67;;;-0.10;99.90;;;;;;5012795;28;20053;-76
2024/01/07 06:03:04;;;;;;;4.65;2.17;;;-0.10;99.90;;;;;;5011012;28;20038;-77
2024/01/07 06:05:30;;;;;;;3.88;2.55;;;-0.10;99.90;;;;;;5010109;28;20053;-77
2024/01/07 06:07:55;;;;;;;3.45;1.63;;;-0.10;99.90;;;;;;5010850;28;20046;-77
2024/01/07 06:10:21;;;;;;;2.13;1.55;;;-0.10;99.90;;;;;;5012570;28;20046;-77
2024/01/07 06:12:47;;;;;;;3.00;1.33;;;-0.10;99.90;;;;;;5001861;28;20037;-77
2024/01/07 06:15:12;;;;;;;2.92;2.45;;;-0.10;99.90;;;;;;5016483;28;20044;-77
2024/01/07 06:17:38;;;;;;;3.10;1.77;;;-0.20;99.90;;;;;;5001520;28;20071;-77
2024/01/07 06:20:05;;;;;;;1.38;0.98;;;-0.20;99.90;;;;;;5017042;28;20046;-77
2024/01/07 06:22:31;;;;;;;9.70;1.60;;;-0.10;99.90;;;;;;4999879;28;20581;-77
2024/01/07 06:24:57;;;;;;;5.05;2.45;;;-0.10;99.90;;;;;;5014646;28;20401;-77
2024/01/07 06:27:22;;;;;;;3.20;1.50;;;-0.20;99.90;;;;;;5017353;28;20075;-76
2024/01/07 06:29:48;;;;;;;2.92;1.50;;;-0.20;99.90;;;;;;5014613;28;20083;-77
2024/01/07 06:32:13;;;;;;;3.92;2.85;;;-0.20;99.90;;;;;;4995388;28;20049;-77
2024/01/07 06:34:39;;;;;;;6.80;2.47;;;-0.20;99.90;;;;;;4994699;28;20054;-77
2024/01/07 06:37:07;;;;;;;3.38;1.60;;;-0.20;99.90;;;;;;4999048;28;20613;-77
2024/01/07 06:39:34;;;;;;;2.50;2.30;;;-0.20;99.90;;;;;;5012356;28;20069;-77
2024/01/07 06:42:00;;;;;;;3.08;2.17;;;-0.20;99.90;;;;;;4996307;28;20038;-77
2024/01/07 06:44:25;;;;;;;2.50;1.52;;;-0.20;99.90;;;;;;5011321;28;20039;-77
2024/01/07 06:46:51;;;;;;;4.85;2.88;;;-0.20;99.90;;;;;;5008895;28;20085;-77
2024/01/07 06:49:17;;;;;;;6.97;2.95;;;-0.20;99.90;;;;;;5009182;28;20073;-77
2024/01/07 06:51:43;;;;;;;0.70;0.70;;;-0.10;99.90;;;;;;4995626;28;20050;-77
2024/01/07 06:54:09;;;;;;;1.25;1.13;;;-0.10;99.90;;;;;;4993085;28;20147;-77
2024/01/07 06:56:34;;;;;;;8.38;1.75;;;-0.10;99.90;;;;;;5026014;28;20046;-77
2024/01/07 06:59:00;;;;;;;6.97;1.52;;;-0.10;99.90;;;;;;4979574;28;20065;-77
2024/01/07 07:01:26;;;;;;;3.00;1.30;;;-0.10;99.90;;;;;;4993072;28;20448;-77
2024/01/07 07:03:51;;;;;;;4.00;3.00;;;-0.10;99.90;;;;;;5008893;28;20042;-77
2024/01/07 07:06:17;;;;;;;1.08;0.90;;;-0.10;99.90;;;;;;5006838;28;20043;-77
2024/01/07 07:08:43;;;;;;;5.60;1.55;;;-0.10;99.90;;;;;;4994610;28;20321;-77
2024/01/07 07:11:09;;;;;;;1.65;0.85;;;-0.10;99.90;;;;;;5012344;28;20056;-77
2024/01/07 07:13:34;;;;;;;1.08;0.80;;;-0.10;99.90;;;;;;5000956;28;20125;-77
2024/01/07 07:16:00;;;;;;;5.85;2.03;;;-0.10;99.90;;;;;;5018055;28;20046;-77
2024/01/07 07:18:26;;;;;;;1.38;0.75;;;-0.10;99.90;;;;;;5002054;28;20038;-77
2024/01/07 07:20:52;;;;;;;1.48;1.27;;;-0.10;99.90;;;;;;5017036;28;20129;-77
2024/01/07 07:23:18;;;;;;;2.60;0.63;;;-0.10;99.90;;;;;;5000326;28;20053;-77
2024/01/07 07:25:43;;;;;;;1.38;0.93;;;-0.10;99.90;;;;;;5016643;28;20530;-77
2024/01/07 07:28:09;;;;;;;2.00;1.20;;;-0.10;99.90;;;;;;4997573;28;20042;-77
2024/01/07 07:30:35;;;;;;;2.80;1.48;;;-0.10;99.90;;;;;;5013017;28;20038;-77
2024/01/07 07:33:02;;;;;;;0.93;0.65;;;0.00;99.90;;;;;;5011686;28;20422;-77
2024/01/07 07:35:28;;;;;;;2.28;1.05;;;-0.10;99.90;;;;;;5010793;28;20046;-77
2024/01/07 07:37:55;;;;;;;1.95;1.30;;;-0.10;99.90;;;;;;5009529;28;20422;-77
2024/01/07 07:40:20;;;;;;;0.60;0.57;;;0.00;99.90;;;;;;5010774;28;20498;-77
2024/01/07 07:42:46;;;;;;;1.15;0.57;;;-0.10;99.90;;;;;;4996532;28;20113;-77
2024/01/07 07:45:12;;;;;;;1.48;0.52;;;0.00;99.90;;;;;;5010275;28;20578;-77
2024/01/07 07:47:40;;;;;;;2.58;1.10;;;0.00;99.90;;;;;;5010209;28;20159;-77
2024/01/07 07:50:07;;;;;;;0.77;0.70;;;0.00;99.90;;;;;;4995583;28;20057;-77
2024/01/07 07:52:33;;;;;;;1.63;1.05;;;0.00;99.90;;;;;;4992705;28;20046;-77
2024/01/07 07:54:58;;;;;;;8.70;0.90;;;0.00;99.90;;;;;;4994310;28;20536;-77
2024/01/07 07:57:25;;;;;;;1.90;1.05;;;0.00;99.90;;;;;;5011225;28;20077;-77
2024/01/07 07:59:50;;;;;;;2.17;1.10;;;0.00;99.90;;;;;;5010806;28;20065;-77
2024/01/07 08:02:16;;;;;;;2.70;0.95;;;0.00;99.90;;;;;;5009645;28;20553;-77
2024/01/07 08:04:43;;;;;;;4.38;1.63;;;-0.10;99.90;;;;;;5010124;28;20034;-77
2024/01/07 08:07:09;;;;;;;2.53;1.55;;;0.00;99.90;;;;;;5010298;28;20064;-77
2024/01/07 08:09:38;;;;;;;0.70;0.70;;;0.00;99.90;;;;;;5009511;28;20049;-77
2024/01/07 08:12:05;;;;;;;2.13;1.20;;;0.00;99.90;;;;;;4993935;28;20044;-77
2024/01/07 08:14:32;;;;;;;0.65;0.50;;;-0.10;99.90;;;;;;5007109;28;20452;-77
2024/01/07 08:16:58;;;;;;;1.27;0.95;;;-0.10;99.90;;;;;;4993548;28;20037;-78
2024/01/07 08:19:23;;;;;;;0.98;0.98;;;-0.20;99.90;;;;;;5015445;28;20053;-77
2024/01/07 08:21:49;;;;;;;1.02;0.90;;;-0.20;99.90;;;;;;4995947;28;20042;-78
2024/01/07 08:24:15;;;;;;;1.67;1.00;;;-0.20;99.90;;;;;;4992375;28;20054;-78
2024/01/07 08:26:40;;;;;;;0.30;0.30;;;-0.10;99.90;;;;;;5009047;28;20970;-78
2024/01/07 08:29:06;;;;;;;1.15;0.70;;;-0.10;99.90;;;;;;5009112;28;20084;-77
2024/01/07 08:31:32;;;;;;;1.13;0.63;;;0.10;99.90;;;;;;5004274;28;20104;-82
2024/01/07 08:33:58;;;;;;;1.10;0.60;;;0.10;99.90;;;;;;5010864;28;20042;-77
2024/01/07 08:36:24;;;;;;;2.22;0.82;;;-0.10;99.90;;;;;;4972357;28;20155;-77
2024/01/07 08:38:49;;;;;;;4.10;0.80;;;0.00;99.90;;;;;;4996185;28;20038;-77
2024/01/07 08:41:16;;;;;;;0.70;0.70;;;-0.10;99.90;;;;;;5031610;28;20486;-77
2024/01/07 08:43:42;;;;;;;1.30;0.85;;;-0.10;99.90;;;;;;5021833;28;20129;-77
2024/01/07 08:46:07;;;;;;;2.45;0.75;;;-0.20;99.90;;;;;;5016761;28;20069;-77
2024/01/07 08:48:33;;;;;;;3.63;0.90;;;-0.20;99.90;;;;;;4998783;28;20110;-77
2024/01/07 08:50:59;;;;;;;0.60;0.50;;;-0.20;99.90;;;;;;5015473;28;20406;-78
2024/01/07 08:53:25;;;;;;;1.05;0.73;;;-0.20;99.90;;;;;;5010246;28;20099;-77
2024/01/07 08:55:51;;;;;;;2.30;1.10;;;-0.30;99.90;;;;;;4995227;28;20056;-75
2024/01/07 08:58:17;;;;;;;0.30;0.30;;;-0.30;99.90;;;;;;5009638;28;20042;-75
2024/01/07 09:00:43;;;;;;;1.85;1.02;;;-0.30;99.90;;;;;;4991287;28;20042;-75
2024/01/07 09:03:10;;;;;;;2.83;1.17;;;-0.20;99.90;;;;;;5005103;28;20042;-75
2024/01/07 09:05:36;;;;;;;1.85;0.95;;;-0.40;99.90;;;;;;4991471;28;20126;-75
2024/01/07 09:08:02;;;;;;;1.95;1.15;;;-0.40;99.90;;;;;;5076588;28;20046;-76
2024/01/07 09:10:28;;;;;;;2.10;0.75;;;-0.30;99.90;;;;;;5006094;28;20071;-75
2024/01/07 09:12:53;;;;;;;2.78;1.25;;;-0.20;99.90;;;;;;4990660;28;20034;-75
2024/01/07 09:15:20;;;;;;;4.88;1.40;;;-0.20;99.90;;;;;;4990014;28;20068;-75
2024/01/07 09:17:46;;;;;;;1.23;0.95;;;-0.10;99.90;;;;;;4998860;28;20073;-76
2024/01/07 09:20:12;;;;;;;3.45;0.68;;;-0.10;99.90;;;;;;5015739;28;20042;-75
2024/01/07 09:22:38;;;;;;;3.67;0.70;;;0.00;99.90;;;;;;4999222;28;20048;-76
2024/01/07 09:25:05;;;;;;;1.02;0.70;;;0.20;99.90;;;;;;4997576;28;20143;-76
2024/01/07 09:27:32;;;;;;;1.45;1.08;;;0.40;99.90;;;;;;4978561;28;20087;-75
2024/01/07 09:29:58;;;;;;;0.40;0.40;;;0.40;99.90;;;;;;4998506;28;20042;-76
2024/01/07 09:32:24;;;;;;;2.20;1.30;;;0.50;99.90;;;;;;5006594;28;20050;-75
2024/01/07 09:34:50;;;;;;;2.45;1.00;;;0.60;99.90;;;;;;4988191;28;20152;-75
2024/01/07 09:37:16;;;;;;;2.92;0.98;;;0.90;99.90;;;;;;4977541;28;20116;-77
2024/01/07 09:39:43;;;;;;;0.70;0.70;;;1.20;99.90;;;;;;5008236;28;20051;-75
2024/01/07 09:42:17;;;;;;;2.80;1.00;;;1.50;99.90;;;;;;5006567;28;20124;-76
2024/01/07 09:44:43;;;;;;;0.40;0.40;;;1.80;99.90;;;;;;5008985;28;20035;-76
2024/01/07 09:47:14;;;;;;;8.02;0.77;;;2.00;99.90;;;;;;5009405;28;20049;-76
2024/01/07 09:49:41;;;;;;;0.60;0.50;;;2.10;99.90;;;;;;5007601;28;20057;-75
2024/01/07 09:52:09;;;;;;;1.50;0.88;;;2.10;99.90;;;;;;5010924;28;20061;-76
2024/01/07 09:54:39;;;;;;;1.63;0.73;;;2.10;99.90;;;;;;5008170;28;20038;-76
2024/01/07 09:57:07;;;;;;;1.17;0.35;;;2.30;99.90;;;;;;4993401;28;20428;-76
2024/01/07 09:59:33;;;;;;;1.85;1.10;;;2.10;99.90;;;;;;5008834;28;20712;-76
2024/01/07 10:01:59;;;;;;;0.50;0.40;;;2.00;99.90;;;;;;4976393;28;20646;-75
2024/01/07 10:04:27;;;;;;;1.05;1.00;;;1.80;99.90;;;;;;4993900;28;20050;-76
2024/01/07 10:06:54;;;;;;;0.85;0.73;;;1.60;99.90;;;;;;5007822;28;20049;-76
2024/01/07 10:09:23;;;;;;;1.25;0.70;;;1.40;99.90;;;;;;5010785;28;20058;-76
2024/01/07 10:11:50;;;;;;;1.90;0.70;;;1.20;99.90;;;;;;4996435;28;20073;-76
2024/01/07 10:14:15;;;;;;;2.03;1.08;;;1.00;99.90;;;;;;4998162;28;20042;-76
2024/01/07 10:16:41;;;;;;;3.45;0.50;;;1.00;99.90;;;;;;5013553;28;20037;-75
2024/01/07 10:19:07;;;;;;;0.85;0.82;;;0.90;99.90;;;;;;4982071;28;20050;-76
2024/01/07 10:21:34;;;;;;;2.22;0.93;;;0.60;99.90;;;;;;5010177;28;20083;-76
2024/01/07 10:24:13;;;;;;;5.40;0.93;;;0.50;99.90;;;;;;5007738;28;20414;-76
2024/01/07 10:26:40;;;;;;;0.30;0.30;;;0.40;99.90;;;;;;5012136;28;20049;-75
2024/01/07 10:29:07;;;;;;;1.38;0.70;;;0.40;99.90;;;;;;4984599;28;20045;-75
2024/01/07 10:31:32;;;;;;;0.50;0.50;;;0.40;99.90;;;;;;5017352;28;20054;-76
2024/01/07 10:33:58;;;;;;;2.03;0.70;;;0.40;99.90;;;;;;5001406;28;20060;-75
2024/01/07 10:36:25;;;;;;;2.33;0.93;;;0.50;99.90;;;;;;5000816;28;20273;-75
2024/01/07 10:38:52;;;;;;;3.95;1.25;;;0.50;99.90;;;;;;4998613;28;20050;-75
2024/01/07 10:41:21;;;;;;;1.85;1.50;;;0.60;99.90;;;;;;4989726;28;20080;-75
2024/01/07 10:43:48;;;;;;;2.25;1.33;;;0.60;99.90;;;;;;4997145;28;20032;-76
2024/01/07 10:46:14;;;;;;;3.60;2.83;;;0.70;99.90;;;;;;5014537;28;20099;-75
2024/01/07 10:48:54;;;;;;;3.72;2.25;;;0.70;99.90;;;;;;5001359;28;20128;-75
2024/01/07 10:51:21;;;;;;;1.35;0.73;;;0.80;99.90;;;;;;5017661;28;20106;-75
2024/01/07 10:53:55;;;;;;;2.08;0.90;;;0.80;99.90;;;;;;4989045;28;20091;-75
2024/01/07 10:56:24;;;;;;;0.38;0.38;;;0.80;99.90;;;;;;5012901;28;20074;-75
2024/01/07 10:58:57;;;;;;;0.55;0.55;;;0.80;99.90;;;;;;5014562;28;20056;-76
2024/01/07 11:01:23;;;;;;;0.35;0.35;;;0.90;99.90;;;;;;5013592;28;20045;-75
2024/01/07 11:04:19;;;;;;;0.57;0.57;;;0.90;99.90;;;;;;4980759;28;20366;-75
2024/01/07 11:07:00;;;;;;;1.95;0.57;;;0.90;99.90;;;;;;4991864;28;20058;-75
2024/01/07 11:10:04;;;;;;;0.60;0.43;;;0.90;99.90;;;;;;5015715;28;20075;-75
2024/01/07 11:12:32;;;;;;;1.13;1.02;;;0.90;99.90;;;;;;5023373;28;20095;-75
2024/01/07 11:14:58;;;;;;;1.58;0.65;;;0.90;99.90;;;;;;4992088;28;20038;-75
2024/01/07 11:17:46;;;;;;;1.45;0.45;;;0.90;99.90;;;;;;4976483;28;20053;-75
2024/01/07 11:20:17;;;;;;;2.88;1.45;;;0.90;99.90;;;;;;4978434;28;20034;-75
2024/01/07 11:22:43;;;;;;;1.48;0.68;;;1.00;99.90;;;;;;4998570;28;20510;-74
2024/01/07 11:25:29;;;;;;;0.47;0.30;;;0.90;99.90;;;;;;4994994;28;20042;-75
2024/01/07 11:27:57;;;;;;;2.05;0.90;;;0.90;99.90;;;;;;5013562;28;20099;-75
2024/01/07 11:30:22;;;;;;;1.60;1.17;;;0.90;99.90;;;;;;5014200;28;20077;-74
2024/01/07 11:32:55;;;;;;;1.05;0.63;;;0.90;99.90;;;;;;4981940;28;20050;-74
2024/01/07 11:35:57;;;;;;;0.85;0.60;;;0.90;99.90;;;;;;4995529;28;20038;-74
2024/01/07 11:38:22;;;;;;;0.30;0.30;;;0.90;99.90;;;;;;4991210;28;20377;-74
2024/01/07 11:40:50;;;;;;;6.93;1.38;;;0.90;99.90;;;;;;4992560;28;20071;-74
2024/01/07 11:43:15;;;;;;;1.25;0.32;;;0.90;99.90;;;;;;5012828;28;20046;-74
2024/01/07 11:45:41;;;;;;;0.35;0.35;;;0.90;99.90;;;;;;4983443;28;20049;-74
2024/01/07 11:48:07;;;;;;;1.15;0.70;;;1.00;99.90;;;;;;4984666;28;20042;-74
2024/01/07 11:50:34;;;;;;;0.98;0.98;;;1.00;99.90;;;;;;4993453;28;20054;-74
2024/01/07 11:53:00;;;;;;;0.77;0.60;;;1.00;99.90;;;;;;4977098;28;20585;-73
2024/01/07 11:55:27;;;;;;;5.28;1.23;;;1.00;99.90;;;;;;4992533;28;20034;-74
2024/01/07 11:57:52;;;;;;;0.95;0.70;;;1.00;99.90;;;;;;4979955;28;20052;-73
2024/01/07 12:00:18;;;;;;;0.45;0.35;;;0.90;99.90;;;;;;4994467;28;20085;-74
2024/01/07 12:02:46;;;;;;;0.47;0.47;;;0.90;99.90;;;;;;4992945;28;20060;-74
2024/01/07 12:05:12;;;;;;;0.45;0.40;;;0.90;99.90;;;;;;4994280;28;20078;-73
2024/01/07 12:07:38;;;;;;;0.95;0.90;;;0.90;99.90;;;;;;5010901;28;20042;-73
2024/01/07 12:10:11;;;;;;;5.93;0.65;;;0.90;99.90;;;;;;4981825;28;20183;-74
2024/01/07 12:12:41;;;;;;;0.95;0.75;;;0.90;99.90;;;;;;5000472;28;20049;-74
2024/01/07 12:15:08;;;;;;;0.30;0.30;;;0.90;99.90;;;;;;4999335;28;20136;-74
2024/01/07 12:17:34;;;;;;;0.80;0.52;;;0.90;99.90;;;;;;4998621;28;20034;-74
2024/01/07 12:20:04;;;;;;;0.75;0.75;;;1.00;99.90;;;;;;5010791;28;20060;-74
2024/01/07 12:22:30;;;;;;;1.00;0.90;;;0.90;99.90;;;;;;5010558;28;20127;-74
2024/01/07 12:25:02;;;;;;;1.50;0.90;;;0.90;99.90;;;;;;5009233;28;20569;-74
2024/01/07 12:27:28;;;;;;;6.60;1.45;;;0.90;99.90;;;;;;4981647;28;20141;-74
2024/01/07 12:29:58;;;;;;;0.93;0.63;;;1.00;99.90;;;;;;5012179;28;20052;-74
2024/01/07 12:32:31;;;;;;;1.73;0.50;;;1.10;99.90;;;;;;4998378;28;20057;-74
2024/01/07 12:34:59;;;;;;;1.42;0.70;;;1.10;99.90;;;;;;4995230;28;20042;-74
2024/01/07 12:37:27;;;;;;;0.50;0.40;;;1.20;99.90;;;;;;5014022;28;20049;-74
2024/01/07 12:39:53;;;;;;;2.72;0.75;;;1.10;99.90;;;;;;5015677;28;20054;-74
2024/01/07 12:42:20;;;;;;;2.35;0.55;;;1.20;99.90;;;;;;5002928;28;20048;-74
2024/01/07 12:44:45;;;;;;;3.03;0.85;;;1.20;99.90;;;;;;4991867;28;20045;-74
2024/01/07 12:47:11;;;;;;;1.75;0.95;;;1.20;99.90;;;;;;4980476;28;20034;-75
2024/01/07 12:49:37;;;;;;;0.85;0.70;;;1.20;99.90;;;;;;4997134;28;20105;-74